sensor_id;sensor_type;location;lat;lon;timestamp;P1;durP1;ratioP1;P2;durP2;ratioP2
17127;SDS011;8679;50.842;4.322;2024-01-30T00:01:43;3.50;;;1.80;;
17127;SDS011;8679;50.842;4.322;2024-01-30T00:04:09;2.40;;;1.53;;
17127;SDS011;8679;50.842;4.322;2024-01-30T00:06:35;3.33;;;1.27;;
17127;SDS011;8679;50.842;4.322;2024-01-30T00:09:01;2.47;;;1.50;;
17127;SDS011;8679;50.842;4.322;2024-01-30T00:11:27;1.97;;;1.30;;
17127;SDS011;8679;50.842;4.322;2024-01-30T00:13:54;2.63;;;1.53;;
17127;SDS011;8679;50.842;4.322;2024-01-30T00:16:23;3.63;;;1.70;;
17127;SDS011;8679;50.842;4.322;2024-01-30T00:18:50;2.23;;;1.63;;
17127;SDS011;8679;50.842;4.322;2024-01-30T00:21:16;2.50;;;1.33;;
17127;SDS011;8679;50.842;4.322;2024-01-30T00:23:42;3.53;;;1.73;;
17127;SDS011;8679;50.842;4.322;2024-01-30T00:26:09;2.37;;;1.63;;
17127;SDS011;8679;50.842;4.322;2024-01-30T00:28:36;1.77;;;1.27;;
17127;SDS011;8679;50.842;4.322;2024-01-30T00:31:02;1.40;;;0.90;;
17127;SDS011;8679;50.842;4.322;2024-01-30T00:33:28;2.60;;;1.20;;
17127;SDS011;8679;50.842;4.322;2024-01-30T00:35:54;3.10;;;1.60;;
17127;SDS011;8679;50.842;4.322;2024-01-30T00:38:20;2.80;;;1.50;;
17127;SDS011;8679;50.842;4.322;2024-01-30T00:40:46;2.77;;;1.43;;
17127;SDS011;8679;50.842;4.322;2024-01-30T00:43:12;2.80;;;1.33;;
17127;SDS011;8679;50.842;4.322;2024-01-30T00:45:38;3.57;;;1.57;;
17127;SDS011;8679;50.842;4.322;2024-01-30T00:48:05;2.83;;;1.80;;
17127;SDS011;8679;50.842;4.322;2024-01-30T00:50:31;5.53;;;1.47;;
17127;SDS011;8679;50.842;4.322;2024-01-30T00:52:57;2.73;;;1.40;;
17127;SDS011;8679;50.842;4.322;2024-01-30T00:55:23;3.97;;;2.10;;
17127;SDS011;8679;50.842;4.322;2024-01-30T00:57:49;3.03;;;1.70;;
17127;SDS011;8679;50.842;4.322;2024-01-30T01:00:15;2.30;;;1.90;;
17127;SDS011;8679;50.842;4.322;2024-01-30T01:02:42;1.83;;;1.27;;
17127;SDS011;8679;50.842;4.322;2024-01-30T01:05:08;3.97;;;1.43;;
17127;SDS011;8679;50.842;4.322;2024-01-30T01:07:35;2.70;;;1.33;;
17127;SDS011;8679;50.842;4.322;2024-01-30T01:10:01;1.90;;;1.20;;
17127;SDS011;8679;50.842;4.322;2024-01-30T01:12:28;2.07;;;1.43;;
17127;SDS011;8679;50.842;4.322;2024-01-30T01:14:54;2.47;;;1.43;;
17127;SDS011;8679;50.842;4.322;2024-01-30T01:17:21;2.07;;;1.10;;
17127;SDS011;8679;50.842;4.322;2024-01-30T01:19:47;1.67;;;1.30;;
17127;SDS011;8679;50.842;4.322;2024-01-30T01:22:13;1.70;;;1.30;;
17127;SDS011;8679;50.842;4.322;2024-01-30T01:24:39;7.03;;;1.77;;
17127;SDS011;8679;50.842;4.322;2024-01-30T01:27:05;4.07;;;1.67;;
17127;SDS011;8679;50.842;4.322;2024-01-30T01:29:31;2.53;;;1.27;;
17127;SDS011;8679;50.842;4.322;2024-01-30T01:31:57;2.70;;;1.50;;
17127;SDS011;8679;50.842;4.322;2024-01-30T01:34:24;1.60;;;1.27;;
17127;SDS011;8679;50.842;4.322;2024-01-30T01:36:50;2.23;;;0.97;;
17127;SDS011;8679;50.842;4.322;2024-01-30T01:39:17;2.00;;;1.20;;
17127;SDS011;8679;50.842;4.322;2024-01-30T01:41:43;3.10;;;1.50;;
17127;SDS011;8679;50.842;4.322;2024-01-30T01:44:09;1.60;;;1.13;;
17127;SDS011;8679;50.842;4.322;2024-01-30T01:46:35;2.93;;;1.30;;
17127;SDS011;8679;50.842;4.322;2024-01-30T01:49:03;2.30;;;1.10;;
17127;SDS011;8679;50.842;4.322;2024-01-30T01:51:31;2.20;;;1.20;;
17127;SDS011;8679;50.842;4.322;2024-01-30T01:53:57;3.27;;;1.57;;
17127;SDS011;8679;50.842;4.322;2024-01-30T01:56:24;2.77;;;1.50;;
17127;SDS011;8679;50.842;4.322;2024-01-30T01:58:51;1.70;;;1.30;;
17127;SDS011;8679;50.842;4.322;2024-01-30T02:01:20;2.47;;;1.43;;
17127;SDS011;8679;50.842;4.322;2024-01-30T02:03:46;2.27;;;1.17;;
17127;SDS011;8679;50.842;4.322;2024-01-30T02:06:15;3.13;;;1.30;;
17127;SDS011;8679;50.842;4.322;2024-01-30T02:08:41;1.10;;;1.00;;
17127;SDS011;8679;50.842;4.322;2024-01-30T02:11:08;2.87;;;1.40;;
17127;SDS011;8679;50.842;4.322;2024-01-30T02:13:35;2.60;;;1.47;;
17127;SDS011;8679;50.842;4.322;2024-01-30T02:16:01;2.93;;;1.30;;
17127;SDS011;8679;50.842;4.322;2024-01-30T02:18:27;4.30;;;1.53;;
17127;SDS011;8679;50.842;4.322;2024-01-30T02:20:54;3.33;;;1.20;;
17127;SDS011;8679;50.842;4.322;2024-01-30T02:23:20;7.07;;;1.47;;
17127;SDS011;8679;50.842;4.322;2024-01-30T02:25:46;1.87;;;1.07;;
17127;SDS011;8679;50.842;4.322;2024-01-30T02:28:15;3.43;;;1.60;;
17127;SDS011;8679;50.842;4.322;2024-01-30T02:30:44;4.50;;;1.77;;
17127;SDS011;8679;50.842;4.322;2024-01-30T02:33:10;3.93;;;1.27;;
17127;SDS011;8679;50.842;4.322;2024-01-30T02:35:36;2.87;;;1.87;;
17127;SDS011;8679;50.842;4.322;2024-01-30T02:38:03;2.00;;;1.37;;
17127;SDS011;8679;50.842;4.322;2024-01-30T02:40:29;2.97;;;1.60;;
17127;SDS011;8679;50.842;4.322;2024-01-30T02:42:55;1.97;;;1.10;;
17127;SDS011;8679;50.842;4.322;2024-01-30T02:45:21;4.57;;;1.37;;
17127;SDS011;8679;50.842;4.322;2024-01-30T02:47:47;2.40;;;1.40;;
17127;SDS011;8679;50.842;4.322;2024-01-30T02:50:13;2.77;;;1.73;;
17127;SDS011;8679;50.842;4.322;2024-01-30T02:52:40;3.27;;;1.50;;
17127;SDS011;8679;50.842;4.322;2024-01-30T02:55:08;4.60;;;1.93;;
17127;SDS011;8679;50.842;4.322;2024-01-30T02:57:35;2.67;;;1.43;;
17127;SDS011;8679;50.842;4.322;2024-01-30T03:00:01;1.30;;;1.07;;
17127;SDS011;8679;50.842;4.322;2024-01-30T03:02:28;3.33;;;1.53;;
17127;SDS011;8679;50.842;4.322;2024-01-30T03:04:54;2.30;;;1.30;;
17127;SDS011;8679;50.842;4.322;2024-01-30T03:07:20;2.93;;;1.33;;
17127;SDS011;8679;50.842;4.322;2024-01-30T03:09:46;3.17;;;1.97;;
17127;SDS011;8679;50.842;4.322;2024-01-30T03:12:13;1.40;;;1.20;;
17127;SDS011;8679;50.842;4.322;2024-01-30T03:14:39;4.10;;;1.77;;
17127;SDS011;8679;50.842;4.322;2024-01-30T03:17:05;5.70;;;1.57;;
17127;SDS011;8679;50.842;4.322;2024-01-30T03:19:31;2.17;;;1.47;;
17127;SDS011;8679;50.842;4.322;2024-01-30T03:21:58;4.17;;;1.37;;
17127;SDS011;8679;50.842;4.322;2024-01-30T03:24:24;1.53;;;1.00;;
17127;SDS011;8679;50.842;4.322;2024-01-30T03:26:50;2.20;;;1.60;;
17127;SDS011;8679;50.842;4.322;2024-01-30T03:29:16;2.50;;;1.27;;
17127;SDS011;8679;50.842;4.322;2024-01-30T03:31:42;3.13;;;1.30;;
17127;SDS011;8679;50.842;4.322;2024-01-30T03:34:08;4.20;;;1.50;;
17127;SDS011;8679;50.842;4.322;2024-01-30T03:36:34;3.17;;;1.53;;
17127;SDS011;8679;50.842;4.322;2024-01-30T03:39:00;3.17;;;1.73;;
17127;SDS011;8679;50.842;4.322;2024-01-30T03:41:27;1.63;;;1.30;;
17127;SDS011;8679;50.842;4.322;2024-01-30T03:43:53;1.27;;;0.90;;
17127;SDS011;8679;50.842;4.322;2024-01-30T03:46:19;1.67;;;1.17;;
17127;SDS011;8679;50.842;4.322;2024-01-30T03:48:45;1.87;;;1.20;;
17127;SDS011;8679;50.842;4.322;2024-01-30T03:51:11;2.23;;;1.03;;
17127;SDS011;8679;50.842;4.322;2024-01-30T03:53:44;10.23;;;1.37;;
17127;SDS011;8679;50.842;4.322;2024-01-30T03:56:13;2.97;;;1.10;;
17127;SDS011;8679;50.842;4.322;2024-01-30T03:58:39;2.40;;;1.50;;
17127;SDS011;8679;50.842;4.322;2024-01-30T04:01:05;2.50;;;1.47;;
17127;SDS011;8679;50.842;4.322;2024-01-30T04:03:31;6.77;;;1.80;;
17127;SDS011;8679;50.842;4.322;2024-01-30T04:05:57;2.33;;;1.47;;
17127;SDS011;8679;50.842;4.322;2024-01-30T04:08:23;2.10;;;1.40;;
17127;SDS011;8679;50.842;4.322;2024-01-30T04:10:49;2.60;;;1.53;;
17127;SDS011;8679;50.842;4.322;2024-01-30T04:13:15;4.57;;;1.53;;
17127;SDS011;8679;50.842;4.322;2024-01-30T04:15:41;6.03;;;1.40;;
17127;SDS011;8679;50.842;4.322;2024-01-30T04:18:07;2.50;;;1.10;;
17127;SDS011;8679;50.842;4.322;2024-01-30T04:20:33;10.80;;;1.67;;
17127;SDS011;8679;50.842;4.322;2024-01-30T04:22:59;2.30;;;1.47;;
17127;SDS011;8679;50.842;4.322;2024-01-30T04:25:25;2.17;;;1.33;;
17127;SDS011;8679;50.842;4.322;2024-01-30T04:27:51;2.73;;;1.33;;
17127;SDS011;8679;50.842;4.322;2024-01-30T04:30:17;1.77;;;1.40;;
17127;SDS011;8679;50.842;4.322;2024-01-30T04:32:44;3.20;;;1.77;;
17127;SDS011;8679;50.842;4.322;2024-01-30T04:35:10;2.47;;;1.30;;
17127;SDS011;8679;50.842;4.322;2024-01-30T04:37:36;3.63;;;1.50;;
17127;SDS011;8679;50.842;4.322;2024-01-30T04:40:02;2.00;;;1.40;;
17127;SDS011;8679;50.842;4.322;2024-01-30T04:42:28;4.83;;;1.53;;
17127;SDS011;8679;50.842;4.322;2024-01-30T04:44:54;1.90;;;1.10;;
17127;SDS011;8679;50.842;4.322;2024-01-30T04:47:20;2.43;;;1.57;;
17127;SDS011;8679;50.842;4.322;2024-01-30T04:49:46;1.90;;;1.00;;
17127;SDS011;8679;50.842;4.322;2024-01-30T04:52:12;3.90;;;1.50;;
17127;SDS011;8679;50.842;4.322;2024-01-30T04:54:38;2.40;;;1.40;;
17127;SDS011;8679;50.842;4.322;2024-01-30T04:57:04;3.07;;;1.90;;
17127;SDS011;8679;50.842;4.322;2024-01-30T04:59:34;5.80;;;2.00;;
17127;SDS011;8679;50.842;4.322;2024-01-30T05:02:01;2.53;;;1.20;;
17127;SDS011;8679;50.842;4.322;2024-01-30T05:04:27;3.47;;;1.33;;
17127;SDS011;8679;50.842;4.322;2024-01-30T05:06:53;2.40;;;1.33;;
17127;SDS011;8679;50.842;4.322;2024-01-30T05:09:19;1.67;;;1.50;;
17127;SDS011;8679;50.842;4.322;2024-01-30T05:11:46;2.80;;;1.30;;
17127;SDS011;8679;50.842;4.322;2024-01-30T05:14:12;3.33;;;1.70;;
17127;SDS011;8679;50.842;4.322;2024-01-30T05:16:40;4.60;;;1.70;;
17127;SDS011;8679;50.842;4.322;2024-01-30T05:19:06;3.20;;;2.23;;
17127;SDS011;8679;50.842;4.322;2024-01-30T05:21:32;3.47;;;1.40;;
17127;SDS011;8679;50.842;4.322;2024-01-30T05:23:59;2.47;;;1.43;;
17127;SDS011;8679;50.842;4.322;2024-01-30T05:26:25;1.90;;;1.40;;
17127;SDS011;8679;50.842;4.322;2024-01-30T05:28:51;2.60;;;1.43;;
17127;SDS011;8679;50.842;4.322;2024-01-30T05:31:17;3.43;;;1.40;;
17127;SDS011;8679;50.842;4.322;2024-01-30T05:33:43;5.53;;;1.97;;
17127;SDS011;8679;50.842;4.322;2024-01-30T05:36:11;2.27;;;1.50;;
17127;SDS011;8679;50.842;4.322;2024-01-30T05:38:38;2.23;;;1.17;;
17127;SDS011;8679;50.842;4.322;2024-01-30T05:41:04;1.73;;;1.13;;
17127;SDS011;8679;50.842;4.322;2024-01-30T05:43:31;2.10;;;1.50;;
17127;SDS011;8679;50.842;4.322;2024-01-30T05:45:57;3.23;;;1.97;;
17127;SDS011;8679;50.842;4.322;2024-01-30T05:48:23;4.40;;;1.50;;
17127;SDS011;8679;50.842;4.322;2024-01-30T05:50:49;4.60;;;2.03;;
17127;SDS011;8679;50.842;4.322;2024-01-30T05:53:15;4.27;;;2.30;;
17127;SDS011;8679;50.842;4.322;2024-01-30T05:55:41;3.90;;;1.63;;
17127;SDS011;8679;50.842;4.322;2024-01-30T05:58:07;2.43;;;1.60;;
17127;SDS011;8679;50.842;4.322;2024-01-30T06:00:33;2.57;;;1.53;;
17127;SDS011;8679;50.842;4.322;2024-01-30T06:02:59;3.87;;;1.50;;
17127;SDS011;8679;50.842;4.322;2024-01-30T06:05:25;3.63;;;1.80;;
17127;SDS011;8679;50.842;4.322;2024-01-30T06:07:51;2.50;;;2.00;;
17127;SDS011;8679;50.842;4.322;2024-01-30T06:10:17;1.17;;;0.97;;
17127;SDS011;8679;50.842;4.322;2024-01-30T06:12:43;2.80;;;1.50;;
17127;SDS011;8679;50.842;4.322;2024-01-30T06:15:09;4.10;;;1.20;;
17127;SDS011;8679;50.842;4.322;2024-01-30T06:17:37;3.43;;;1.80;;
17127;SDS011;8679;50.842;4.322;2024-01-30T06:20:04;3.07;;;1.40;;
17127;SDS011;8679;50.842;4.322;2024-01-30T06:22:30;2.20;;;1.50;;
17127;SDS011;8679;50.842;4.322;2024-01-30T06:24:56;3.17;;;1.80;;
17127;SDS011;8679;50.842;4.322;2024-01-30T06:27:22;3.90;;;1.80;;
17127;SDS011;8679;50.842;4.322;2024-01-30T06:29:48;1.93;;;1.37;;
17127;SDS011;8679;50.842;4.322;2024-01-30T06:32:14;4.30;;;1.77;;
17127;SDS011;8679;50.842;4.322;2024-01-30T06:34:40;4.10;;;2.23;;
17127;SDS011;8679;50.842;4.322;2024-01-30T06:37:09;4.07;;;2.23;;
17127;SDS011;8679;50.842;4.322;2024-01-30T06:39:35;2.03;;;1.47;;
17127;SDS011;8679;50.842;4.322;2024-01-30T06:42:01;2.43;;;1.60;;
17127;SDS011;8679;50.842;4.322;2024-01-30T06:44:27;2.03;;;1.30;;
17127;SDS011;8679;50.842;4.322;2024-01-30T06:46:53;2.63;;;1.70;;
17127;SDS011;8679;50.842;4.322;2024-01-30T06:49:19;2.37;;;1.73;;
17127;SDS011;8679;50.842;4.322;2024-01-30T06:51:47;4.20;;;2.00;;
17127;SDS011;8679;50.842;4.322;2024-01-30T06:54:13;2.37;;;1.53;;
17127;SDS011;8679;50.842;4.322;2024-01-30T06:56:39;5.30;;;2.37;;
17127;SDS011;8679;50.842;4.322;2024-01-30T06:59:05;2.77;;;1.70;;
17127;SDS011;8679;50.842;4.322;2024-01-30T07:01:31;3.87;;;2.30;;
17127;SDS011;8679;50.842;4.322;2024-01-30T07:03:57;2.83;;;1.60;;
17127;SDS011;8679;50.842;4.322;2024-01-30T07:06:24;4.57;;;1.47;;
17127;SDS011;8679;50.842;4.322;2024-01-30T07:08:50;3.33;;;1.63;;
17127;SDS011;8679;50.842;4.322;2024-01-30T07:11:19;1.77;;;1.37;;
17127;SDS011;8679;50.842;4.322;2024-01-30T07:13:50;7.03;;;1.60;;
17127;SDS011;8679;50.842;4.322;2024-01-30T07:16:16;2.30;;;1.67;;
17127;SDS011;8679;50.842;4.322;2024-01-30T07:18:43;5.23;;;2.03;;
17127;SDS011;8679;50.842;4.322;2024-01-30T07:21:09;3.20;;;1.80;;
17127;SDS011;8679;50.842;4.322;2024-01-30T07:23:35;3.17;;;1.50;;
17127;SDS011;8679;50.842;4.322;2024-01-30T07:26:06;3.93;;;1.70;;
17127;SDS011;8679;50.842;4.322;2024-01-30T07:28:34;2.17;;;1.53;;
17127;SDS011;8679;50.842;4.322;2024-01-30T07:31:01;3.23;;;1.47;;
17127;SDS011;8679;50.842;4.322;2024-01-30T07:33:27;2.63;;;1.70;;
17127;SDS011;8679;50.842;4.322;2024-01-30T07:35:53;2.13;;;1.50;;
17127;SDS011;8679;50.842;4.322;2024-01-30T07:38:19;5.53;;;2.30;;
17127;SDS011;8679;50.842;4.322;2024-01-30T07:40:46;7.53;;;2.07;;
17127;SDS011;8679;50.842;4.322;2024-01-30T07:43:12;3.67;;;1.87;;
17127;SDS011;8679;50.842;4.322;2024-01-30T07:45:38;2.90;;;1.33;;
17127;SDS011;8679;50.842;4.322;2024-01-30T07:48:07;3.37;;;1.87;;
17127;SDS011;8679;50.842;4.322;2024-01-30T07:50:33;3.90;;;2.03;;
17127;SDS011;8679;50.842;4.322;2024-01-30T07:52:59;4.50;;;1.90;;
17127;SDS011;8679;50.842;4.322;2024-01-30T07:55:25;2.70;;;1.70;;
17127;SDS011;8679;50.842;4.322;2024-01-30T07:57:56;3.90;;;1.80;;
17127;SDS011;8679;50.842;4.322;2024-01-30T08:00:24;2.73;;;1.43;;
17127;SDS011;8679;50.842;4.322;2024-01-30T08:02:50;4.60;;;1.80;;
17127;SDS011;8679;50.842;4.322;2024-01-30T08:05:19;4.53;;;1.77;;
17127;SDS011;8679;50.842;4.322;2024-01-30T08:07:47;6.33;;;2.43;;
17127;SDS011;8679;50.842;4.322;2024-01-30T08:10:14;7.60;;;1.97;;
17127;SDS011;8679;50.842;4.322;2024-01-30T08:12:40;6.33;;;1.90;;
17127;SDS011;8679;50.842;4.322;2024-01-30T08:15:06;3.40;;;1.50;;
17127;SDS011;8679;50.842;4.322;2024-01-30T08:17:33;6.03;;;2.00;;
17127;SDS011;8679;50.842;4.322;2024-01-30T08:19:59;5.40;;;1.77;;
17127;SDS011;8679;50.842;4.322;2024-01-30T08:22:25;5.10;;;2.73;;
17127;SDS011;8679;50.842;4.322;2024-01-30T08:24:51;5.03;;;1.93;;
17127;SDS011;8679;50.842;4.322;2024-01-30T08:27:17;6.83;;;2.80;;
17127;SDS011;8679;50.842;4.322;2024-01-30T08:29:43;4.90;;;2.63;;
17127;SDS011;8679;50.842;4.322;2024-01-30T08:32:09;2.70;;;1.67;;
17127;SDS011;8679;50.842;4.322;2024-01-30T08:34:35;6.03;;;1.80;;
17127;SDS011;8679;50.842;4.322;2024-01-30T08:37:02;3.70;;;1.70;;
17127;SDS011;8679;50.842;4.322;2024-01-30T08:39:28;14.20;;;2.53;;
17127;SDS011;8679;50.842;4.322;2024-01-30T08:41:55;5.23;;;1.67;;
17127;SDS011;8679;50.842;4.322;2024-01-30T08:44:21;6.33;;;2.27;;
17127;SDS011;8679;50.842;4.322;2024-01-30T08:46:47;4.77;;;1.83;;
17127;SDS011;8679;50.842;4.322;2024-01-30T08:49:16;7.07;;;2.77;;
17127;SDS011;8679;50.842;4.322;2024-01-30T08:51:42;2.47;;;1.37;;
17127;SDS011;8679;50.842;4.322;2024-01-30T08:54:08;5.33;;;2.33;;
17127;SDS011;8679;50.842;4.322;2024-01-30T08:56:34;5.37;;;2.10;;
17127;SDS011;8679;50.842;4.322;2024-01-30T08:59:00;3.50;;;1.83;;
17127;SDS011;8679;50.842;4.322;2024-01-30T09:01:26;5.73;;;1.93;;
17127;SDS011;8679;50.842;4.322;2024-01-30T09:03:52;4.93;;;2.27;;
17127;SDS011;8679;50.842;4.322;2024-01-30T09:06:19;2.83;;;1.83;;
17127;SDS011;8679;50.842;4.322;2024-01-30T09:08:45;4.00;;;2.00;;
17127;SDS011;8679;50.842;4.322;2024-01-30T09:11:11;2.97;;;1.70;;
17127;SDS011;8679;50.842;4.322;2024-01-30T09:13:38;5.50;;;2.57;;
17127;SDS011;8679;50.842;4.322;2024-01-30T09:16:04;2.77;;;1.70;;
17127;SDS011;8679;50.842;4.322;2024-01-30T09:18:30;5.07;;;2.57;;
17127;SDS011;8679;50.842;4.322;2024-01-30T09:20:56;4.13;;;1.67;;
17127;SDS011;8679;50.842;4.322;2024-01-30T09:23:23;5.80;;;2.20;;
17127;SDS011;8679;50.842;4.322;2024-01-30T09:25:49;7.87;;;2.30;;
17127;SDS011;8679;50.842;4.322;2024-01-30T09:28:17;7.33;;;2.17;;
17127;SDS011;8679;50.842;4.322;2024-01-30T09:30:43;6.30;;;2.30;;
17127;SDS011;8679;50.842;4.322;2024-01-30T09:33:09;5.27;;;2.87;;
17127;SDS011;8679;50.842;4.322;2024-01-30T09:35:38;10.83;;;2.83;;
17127;SDS011;8679;50.842;4.322;2024-01-30T09:38:04;3.97;;;2.23;;
17127;SDS011;8679;50.842;4.322;2024-01-30T09:40:30;10.50;;;2.50;;
17127;SDS011;8679;50.842;4.322;2024-01-30T09:42:56;4.50;;;2.77;;
17127;SDS011;8679;50.842;4.322;2024-01-30T09:45:27;24.80;;;2.73;;
17127;SDS011;8679;50.842;4.322;2024-01-30T09:47:53;2.70;;;1.83;;
17127;SDS011;8679;50.842;4.322;2024-01-30T09:50:19;3.73;;;1.60;;
17127;SDS011;8679;50.842;4.322;2024-01-30T09:52:46;2.73;;;2.03;;
17127;SDS011;8679;50.842;4.322;2024-01-30T09:55:12;7.13;;;2.47;;
17127;SDS011;8679;50.842;4.322;2024-01-30T09:57:39;4.03;;;2.57;;
17127;SDS011;8679;50.842;4.322;2024-01-30T10:00:05;9.57;;;1.97;;
17127;SDS011;8679;50.842;4.322;2024-01-30T10:02:35;6.77;;;2.50;;
17127;SDS011;8679;50.842;4.322;2024-01-30T10:05:01;4.30;;;2.27;;
17127;SDS011;8679;50.842;4.322;2024-01-30T10:07:28;4.50;;;2.03;;
17127;SDS011;8679;50.842;4.322;2024-01-30T10:09:55;7.77;;;3.00;;
17127;SDS011;8679;50.842;4.322;2024-01-30T10:12:22;13.20;;;3.07;;
17127;SDS011;8679;50.842;4.322;2024-01-30T10:14:48;7.43;;;3.03;;
17127;SDS011;8679;50.842;4.322;2024-01-30T10:17:14;4.27;;;2.03;;
17127;SDS011;8679;50.842;4.322;2024-01-30T10:19:40;4.40;;;2.03;;
17127;SDS011;8679;50.842;4.322;2024-01-30T10:22:07;3.67;;;2.30;;
17127;SDS011;8679;50.842;4.322;2024-01-30T10:24:33;4.80;;;2.43;;
17127;SDS011;8679;50.842;4.322;2024-01-30T10:26:59;3.63;;;2.57;;
17127;SDS011;8679;50.842;4.322;2024-01-30T10:29:26;5.80;;;2.83;;
17127;SDS011;8679;50.842;4.322;2024-01-30T10:31:59;8.60;;;2.83;;
17127;SDS011;8679;50.842;4.322;2024-01-30T10:34:25;4.80;;;2.60;;
17127;SDS011;8679;50.842;4.322;2024-01-30T10:36:54;5.73;;;3.13;;
17127;SDS011;8679;50.842;4.322;2024-01-30T10:39:22;7.83;;;3.17;;
17127;SDS011;8679;50.842;4.322;2024-01-30T10:41:48;3.97;;;2.90;;
17127;SDS011;8679;50.842;4.322;2024-01-30T10:44:17;8.70;;;4.83;;
17127;SDS011;8679;50.842;4.322;2024-01-30T10:46:45;8.30;;;3.27;;
17127;SDS011;8679;50.842;4.322;2024-01-30T10:49:16;5.13;;;2.37;;
17127;SDS011;8679;50.842;4.322;2024-01-30T10:51:42;2.67;;;1.63;;
17127;SDS011;8679;50.842;4.322;2024-01-30T10:54:09;6.37;;;1.93;;
17127;SDS011;8679;50.842;4.322;2024-01-30T10:56:36;7.00;;;3.13;;
17127;SDS011;8679;50.842;4.322;2024-01-30T10:59:02;7.23;;;2.30;;
17127;SDS011;8679;50.842;4.322;2024-01-30T11:01:29;2.53;;;1.80;;
17127;SDS011;8679;50.842;4.322;2024-01-30T11:03:56;2.47;;;1.73;;
17127;SDS011;8679;50.842;4.322;2024-01-30T11:06:22;4.10;;;1.97;;
17127;SDS011;8679;50.842;4.322;2024-01-30T11:09:04;2.73;;;1.40;;
17127;SDS011;8679;50.842;4.322;2024-01-30T11:14:22;3.13;;;1.60;;
17127;SDS011;8679;50.842;4.322;2024-01-30T11:16:50;4.70;;;1.53;;
17127;SDS011;8679;50.842;4.322;2024-01-30T11:19:22;8.20;;;1.50;;
17127;SDS011;8679;50.842;4.322;2024-01-30T11:21:50;5.60;;;1.40;;
17127;SDS011;8679;50.842;4.322;2024-01-30T11:24:19;2.77;;;1.40;;
17127;SDS011;8679;50.842;4.322;2024-01-30T11:26:47;0.97;;;0.60;;
17127;SDS011;8679;50.842;4.322;2024-01-30T11:29:13;2.60;;;0.97;;
17127;SDS011;8679;50.842;4.322;2024-01-30T11:31:40;0.50;;;0.40;;
17127;SDS011;8679;50.842;4.322;2024-01-30T11:34:06;1.13;;;0.47;;
17127;SDS011;8679;50.842;4.322;2024-01-30T11:36:34;2.40;;;0.70;;
17127;SDS011;8679;50.842;4.322;2024-01-30T11:39:02;0.60;;;0.60;;
17127;SDS011;8679;50.842;4.322;2024-01-30T11:41:29;4.40;;;0.40;;
17127;SDS011;8679;50.842;4.322;2024-01-30T11:43:56;5.10;;;0.73;;
17127;SDS011;8679;50.842;4.322;2024-01-30T11:46:24;3.10;;;0.50;;
17127;SDS011;8679;50.842;4.322;2024-01-30T11:48:50;3.30;;;1.03;;
17127;SDS011;8679;50.842;4.322;2024-01-30T11:51:16;1.27;;;0.63;;
17127;SDS011;8679;50.842;4.322;2024-01-30T11:53:44;1.60;;;0.97;;
17127;SDS011;8679;50.842;4.322;2024-01-30T11:56:12;7.00;;;0.70;;
17127;SDS011;8679;50.842;4.322;2024-01-30T11:58:38;0.97;;;0.50;;
17127;SDS011;8679;50.842;4.322;2024-01-30T12:01:08;1.80;;;0.50;;
17127;SDS011;8679;50.842;4.322;2024-01-30T12:03:34;2.67;;;0.43;;
17127;SDS011;8679;50.842;4.322;2024-01-30T12:06:00;0.50;;;0.13;;
17127;SDS011;8679;50.842;4.322;2024-01-30T12:08:28;0.90;;;0.50;;
17127;SDS011;8679;50.842;4.322;2024-01-30T12:10:57;0.30;;;0.20;;
17127;SDS011;8679;50.842;4.322;2024-01-30T12:13:24;1.00;;;0.40;;
17127;SDS011;8679;50.842;4.322;2024-01-30T12:15:51;5.77;;;0.70;;
17127;SDS011;8679;50.842;4.322;2024-01-30T12:18:20;3.50;;;1.03;;
17127;SDS011;8679;50.842;4.322;2024-01-30T12:20:56;0.43;;;0.20;;
17127;SDS011;8679;50.842;4.322;2024-01-30T12:23:23;2.10;;;0.33;;
17127;SDS011;8679;50.842;4.322;2024-01-30T12:25:50;0.10;;;0.10;;
17127;SDS011;8679;50.842;4.322;2024-01-30T12:28:17;0.83;;;0.27;;
17127;SDS011;8679;50.842;4.322;2024-01-30T12:30:43;3.00;;;0.33;;
17127;SDS011;8679;50.842;4.322;2024-01-30T12:33:09;0.47;;;0.47;;
17127;SDS011;8679;50.842;4.322;2024-01-30T12:35:35;0.67;;;0.20;;
17127;SDS011;8679;50.842;4.322;2024-01-30T12:38:02;5.50;;;0.57;;
17127;SDS011;8679;50.842;4.322;2024-01-30T12:40:28;0.30;;;0.20;;
17127;SDS011;8679;50.842;4.322;2024-01-30T12:42:54;0.20;;;0.13;;
17127;SDS011;8679;50.842;4.322;2024-01-30T12:45:20;1.03;;;0.27;;
17127;SDS011;8679;50.842;4.322;2024-01-30T12:47:47;0.43;;;0.20;;
17127;SDS011;8679;50.842;4.322;2024-01-30T12:50:13;4.37;;;0.37;;
17127;SDS011;8679;50.842;4.322;2024-01-30T12:52:41;0.57;;;0.30;;
17127;SDS011;8679;50.842;4.322;2024-01-30T12:55:07;0.20;;;0.20;;
17127;SDS011;8679;50.842;4.322;2024-01-30T12:57:33;0.83;;;0.27;;
17127;SDS011;8679;50.842;4.322;2024-01-30T12:59:59;0.10;;;0.10;;
17127;SDS011;8679;50.842;4.322;2024-01-30T13:02:25;1.60;;;0.20;;
17127;SDS011;8679;50.842;4.322;2024-01-30T13:04:55;0.40;;;0.27;;
17127;SDS011;8679;50.842;4.322;2024-01-30T13:07:21;1.53;;;0.30;;
17127;SDS011;8679;50.842;4.322;2024-01-30T13:09:47;1.80;;;0.27;;
17127;SDS011;8679;50.842;4.322;2024-01-30T13:12:13;1.90;;;0.40;;
17127;SDS011;8679;50.842;4.322;2024-01-30T13:14:39;0.10;;;0.10;;
17127;SDS011;8679;50.842;4.322;2024-01-30T13:17:05;3.40;;;0.50;;
17127;SDS011;8679;50.842;4.322;2024-01-30T13:19:31;1.40;;;0.40;;
17127;SDS011;8679;50.842;4.322;2024-01-30T13:21:57;6.47;;;0.30;;
17127;SDS011;8679;50.842;4.322;2024-01-30T13:24:23;0.53;;;0.27;;
17127;SDS011;8679;50.842;4.322;2024-01-30T13:26:50;0.67;;;0.20;;
17127;SDS011;8679;50.842;4.322;2024-01-30T13:29:16;0.50;;;0.40;;
17127;SDS011;8679;50.842;4.322;2024-01-30T13:31:42;0.60;;;0.27;;
17127;SDS011;8679;50.842;4.322;2024-01-30T13:34:09;0.60;;;0.40;;
17127;SDS011;8679;50.842;4.322;2024-01-30T13:36:35;0.80;;;0.60;;
17127;SDS011;8679;50.842;4.322;2024-01-30T13:39:01;1.20;;;0.33;;
17127;SDS011;8679;50.842;4.322;2024-01-30T13:41:27;3.17;;;0.77;;
17127;SDS011;8679;50.842;4.322;2024-01-30T13:43:55;1.10;;;0.40;;
17127;SDS011;8679;50.842;4.322;2024-01-30T13:46:21;0.67;;;0.60;;
17127;SDS011;8679;50.842;4.322;2024-01-30T13:48:47;1.60;;;0.87;;
17127;SDS011;8679;50.842;4.322;2024-01-30T13:51:13;1.80;;;0.40;;
17127;SDS011;8679;50.842;4.322;2024-01-30T13:53:41;0.27;;;0.20;;
17127;SDS011;8679;50.842;4.322;2024-01-30T13:56:08;1.37;;;0.27;;
17127;SDS011;8679;50.842;4.322;2024-01-30T13:58:34;0.30;;;0.20;;
17127;SDS011;8679;50.842;4.322;2024-01-30T14:01:01;0.30;;;0.20;;
17127;SDS011;8679;50.842;4.322;2024-01-30T14:03:27;0.20;;;0.20;;
17127;SDS011;8679;50.842;4.322;2024-01-30T14:05:54;0.80;;;0.30;;
17127;SDS011;8679;50.842;4.322;2024-01-30T14:08:20;1.23;;;0.20;;
17127;SDS011;8679;50.842;4.322;2024-01-30T14:10:49;1.17;;;0.43;;
17127;SDS011;8679;50.842;4.322;2024-01-30T14:13:15;2.57;;;0.67;;
17127;SDS011;8679;50.842;4.322;2024-01-30T14:15:41;0.20;;;0.20;;
17127;SDS011;8679;50.842;4.322;2024-01-30T14:18:07;1.50;;;0.27;;
17127;SDS011;8679;50.842;4.322;2024-01-30T14:20:34;0.47;;;0.23;;
17127;SDS011;8679;50.842;4.322;2024-01-30T14:23:00;1.57;;;0.40;;
17127;SDS011;8679;50.842;4.322;2024-01-30T14:25:26;0.50;;;0.20;;
17127;SDS011;8679;50.842;4.322;2024-01-30T14:27:52;3.97;;;0.33;;
17127;SDS011;8679;50.842;4.322;2024-01-30T14:30:18;0.10;;;0.10;;
17127;SDS011;8679;50.842;4.322;2024-01-30T14:32:44;0.20;;;0.20;;
17127;SDS011;8679;50.842;4.322;2024-01-30T14:35:11;1.70;;;0.50;;
17127;SDS011;8679;50.842;4.322;2024-01-30T14:37:37;2.33;;;0.63;;
17127;SDS011;8679;50.842;4.322;2024-01-30T14:40:04;3.80;;;0.40;;
17127;SDS011;8679;50.842;4.322;2024-01-30T14:42:32;0.50;;;0.30;;
17127;SDS011;8679;50.842;4.322;2024-01-30T14:44:58;0.90;;;0.40;;
17127;SDS011;8679;50.842;4.322;2024-01-30T14:47:24;1.03;;;0.37;;
17127;SDS011;8679;50.842;4.322;2024-01-30T14:49:51;2.17;;;0.60;;
17127;SDS011;8679;50.842;4.322;2024-01-30T14:52:17;1.40;;;0.33;;
17127;SDS011;8679;50.842;4.322;2024-01-30T14:54:43;0.70;;;0.40;;
17127;SDS011;8679;50.842;4.322;2024-01-30T14:57:09;0.83;;;0.30;;
17127;SDS011;8679;50.842;4.322;2024-01-30T14:59:36;0.20;;;0.20;;